createdAt,value
2019-01-18T00:01:56.846Z,-0.20
2019-01-18T00:04:26.371Z,-0.30
2019-01-18T00:06:55.946Z,-0.40
2019-01-18T00:09:25.459Z,-0.50
2019-01-18T00:11:55.062Z,-0.60
2019-01-18T00:14:24.688Z,-0.60
2019-01-18T00:16:54.214Z,-0.70
2019-01-18T00:19:23.717Z,-0.80
2019-01-18T00:21:53.646Z,-0.70
2019-01-18T00:24:23.311Z,-0.60
2019-01-18T00:26:53.203Z,-0.50
2019-01-18T00:29:29.462Z,-0.40
2019-01-18T00:31:54.348Z,-0.40
2019-01-18T00:34:23.863Z,-0.30
2019-01-18T00:36:53.587Z,-0.30
2019-01-18T00:39:23.161Z,-0.30
2019-01-18T00:41:52.875Z,-0.20
2019-01-18T00:44:22.391Z,-0.30
2019-01-18T00:46:52.250Z,-0.30
2019-01-18T00:49:21.825Z,-0.30
2019-01-18T00:51:51.392Z,-0.30
2019-01-18T00:54:22.141Z,-0.30
2019-01-18T00:56:51.685Z,-0.30
2019-01-18T00:59:21.787Z,-0.40
2019-01-18T01:01:51.417Z,-0.40
2019-01-18T01:04:21.114Z,-0.40
2019-01-18T01:06:50.714Z,-0.40
2019-01-18T01:09:23.688Z,-0.50
2019-01-18T01:11:53.428Z,-0.50
2019-01-18T01:14:23.023Z,-0.50
2019-01-18T01:16:52.523Z,-0.40
2019-01-18T01:19:22.218Z,-0.50
2019-01-18T01:21:51.832Z,-0.50
2019-01-18T01:24:21.636Z,-0.50
2019-01-18T01:26:51.256Z,-0.50
2019-01-18T01:29:21.207Z,-0.40
2019-01-18T01:31:51.005Z,-0.50
2019-01-18T01:34:20.807Z,-0.50
2019-01-18T01:36:50.713Z,-0.50
2019-01-18T01:39:20.285Z,-0.50
2019-01-18T01:41:49.929Z,-0.50
2019-01-18T01:44:19.613Z,-0.50
2019-01-18T01:46:49.492Z,-0.50
2019-01-18T01:49:19.023Z,-0.40
2019-01-18T01:51:48.503Z,-0.40
2019-01-18T01:54:18.156Z,-0.50
2019-01-18T01:56:47.644Z,-0.50
2019-01-18T01:59:17.252Z,-0.50
2019-01-18T02:01:46.714Z,-0.50
2019-01-18T02:04:16.176Z,-0.50
2019-01-18T02:06:45.677Z,-0.50
2019-01-18T02:09:16.546Z,-0.50
2019-01-18T02:11:46.372Z,-0.60
2019-01-18T02:14:15.841Z,-0.60
2019-01-18T02:16:45.345Z,-0.60
2019-01-18T02:19:14.932Z,-0.60
2019-01-18T02:21:44.403Z,-0.60
2019-01-18T02:24:13.828Z,-0.60
2019-01-18T02:26:43.653Z,-0.60
2019-01-18T02:29:13.165Z,-0.60
2019-01-18T02:31:42.677Z,-0.60
2019-01-18T02:34:12.148Z,-0.60
2019-01-18T02:36:41.700Z,-0.50
2019-01-18T02:39:11.199Z,-0.60
2019-01-18T02:41:40.698Z,-0.50
2019-01-18T02:44:10.263Z,-0.50
2019-01-18T02:46:39.749Z,-0.50
2019-01-18T02:49:09.201Z,-0.50
2019-01-18T02:51:38.927Z,-0.60
2019-01-18T02:54:08.415Z,-0.60
2019-01-18T02:56:37.893Z,-0.60
2019-01-18T02:59:08.007Z,-0.70
2019-01-18T03:01:37.652Z,-0.70
2019-01-18T03:04:07.143Z,-0.80
2019-01-18T03:06:36.664Z,-0.90
2019-01-18T03:09:09.715Z,-1.00
2019-01-18T03:11:39.204Z,-1.00
2019-01-18T03:14:08.766Z,-1.00
2019-01-18T03:16:38.312Z,-0.90
2019-01-18T03:19:07.815Z,-0.90
2019-01-18T03:21:37.317Z,-0.90
2019-01-18T03:24:06.752Z,-0.90
2019-01-18T03:26:36.213Z,-0.90
2019-01-18T03:29:05.749Z,-0.90
2019-01-18T03:31:35.285Z,-0.90
2019-01-18T03:34:04.825Z,-0.90
2019-01-18T03:36:34.423Z,-0.90
2019-01-18T03:39:07.073Z,-0.90
2019-01-18T03:41:36.626Z,-0.90
2019-01-18T03:44:06.244Z,-0.90
2019-01-18T03:46:35.863Z,-0.90
2019-01-18T03:49:06.743Z,-0.90
2019-01-18T03:51:36.261Z,-0.90
2019-01-18T03:54:05.979Z,-0.90
2019-01-18T03:56:35.518Z,-0.90
2019-01-18T03:59:07.823Z,-1.00
2019-01-18T04:01:37.640Z,-1.00
2019-01-18T04:04:07.197Z,-1.00
2019-01-18T04:06:36.813Z,-1.00
2019-01-18T04:09:08.153Z,-1.00
2019-01-18T04:11:37.672Z,-1.00
2019-01-18T04:14:07.198Z,-1.00
2019-01-18T04:16:36.999Z,-0.90
2019-01-18T04:19:06.510Z,-0.90
2019-01-18T04:21:36.346Z,-0.90
2019-01-18T04:24:05.869Z,-0.90
2019-01-18T04:26:35.790Z,-0.90
2019-01-18T04:29:05.311Z,-0.90
2019-01-18T04:31:35.264Z,-1.00
2019-01-18T04:34:04.797Z,-1.00
2019-01-18T04:36:34.489Z,-1.10
2019-01-18T04:39:05.645Z,-1.10
2019-01-18T04:41:35.236Z,-1.10
2019-01-18T04:44:04.809Z,-1.10
2019-01-18T04:46:34.364Z,-1.10
2019-01-18T04:49:04.904Z,-1.10
2019-01-18T04:51:34.764Z,-1.00
2019-01-18T04:54:04.339Z,-1.00
2019-01-18T04:56:34.060Z,-0.90
2019-01-18T04:59:03.705Z,-0.90
2019-01-18T05:01:33.344Z,-1.00
2019-01-18T05:04:02.925Z,-1.00
2019-01-18T05:06:32.498Z,-1.00
2019-01-18T05:09:02.136Z,-1.00
2019-01-18T05:11:31.629Z,-1.00
2019-01-18T05:14:01.594Z,-0.90
2019-01-18T05:16:31.476Z,-0.90
2019-01-18T05:19:01.044Z,-0.90
2019-01-18T05:21:30.559Z,-0.90
2019-01-18T05:24:00.221Z,-0.90
2019-01-18T05:26:29.699Z,-0.90
2019-01-18T05:28:59.192Z,-0.90
2019-01-18T05:31:28.691Z,-0.90
2019-01-18T05:33:58.267Z,-0.90
2019-01-18T05:36:28.789Z,-0.90
2019-01-18T05:38:58.618Z,-0.90
2019-01-18T05:41:28.026Z,-0.80
2019-01-18T05:43:57.535Z,-0.90
2019-01-18T05:46:27.227Z,-0.90
2019-01-18T05:48:56.711Z,-0.90
2019-01-18T05:51:26.225Z,-0.90
2019-01-18T05:53:55.859Z,-0.90
2019-01-18T05:56:25.354Z,-0.90
2019-01-18T05:58:54.996Z,-1.00
2019-01-18T06:01:24.677Z,-1.10
2019-01-18T06:03:54.702Z,-1.20
2019-01-18T06:06:24.211Z,-1.20
2019-01-18T06:08:53.705Z,-1.20
2019-01-18T06:11:23.479Z,-1.20
2019-01-18T06:13:52.918Z,-1.20
2019-01-18T06:16:22.435Z,-1.30
2019-01-18T06:18:52.105Z,-1.30
2019-01-18T06:21:21.627Z,-1.40
2019-01-18T06:23:51.212Z,-1.40
2019-01-18T06:26:20.775Z,-1.40
2019-01-18T06:28:50.340Z,-1.40
2019-01-18T06:31:19.788Z,-1.40
2019-01-18T06:33:49.320Z,-1.50
2019-01-18T06:36:18.883Z,-1.50
2019-01-18T06:38:48.390Z,-1.50
2019-01-18T06:41:32.658Z,-1.60
2019-01-18T06:44:02.236Z,-1.60
2019-01-18T06:46:31.779Z,-1.60
2019-01-18T06:49:01.574Z,-1.60
2019-01-18T06:51:31.147Z,-1.60
2019-01-18T06:54:00.624Z,-1.60
2019-01-18T06:56:30.183Z,-1.50
2019-01-18T06:58:59.713Z,-1.50
2019-01-18T07:01:29.255Z,-1.50
2019-01-18T07:03:58.967Z,-1.50
2019-01-18T07:06:28.708Z,-1.50
2019-01-18T07:08:58.213Z,-1.60
2019-01-18T07:11:27.680Z,-1.60
2019-01-18T07:13:57.213Z,-1.60
2019-01-18T07:16:26.784Z,-1.60
2019-01-18T07:18:56.251Z,-1.60
2019-01-18T07:21:26.134Z,-1.60
2019-01-18T07:23:55.584Z,-1.60
2019-01-18T07:26:25.201Z,-1.50
2019-01-18T07:28:54.700Z,-1.50
2019-01-18T07:31:24.172Z,-1.40
2019-01-18T07:33:53.802Z,-1.40
2019-01-18T07:36:23.368Z,-1.40
2019-01-18T07:38:52.892Z,-1.30
2019-01-18T07:41:22.470Z,-1.30
2019-01-18T07:43:51.959Z,-1.30
2019-01-18T07:46:21.504Z,-1.20
2019-01-18T07:48:50.973Z,-1.10
2019-01-18T07:51:20.485Z,-1.00
2019-01-18T07:53:49.942Z,-0.70
2019-01-18T07:56:19.499Z,-0.70
2019-01-18T07:58:49.011Z,-0.70
2019-01-18T08:01:22.051Z,-0.70
2019-01-18T08:03:49.775Z,-0.70
2019-01-18T08:06:19.266Z,-0.70
2019-01-18T08:08:48.782Z,-0.70
2019-01-18T08:11:18.335Z,-0.70
2019-01-18T08:13:47.855Z,-0.70
2019-01-18T08:16:17.759Z,-0.60
2019-01-18T08:18:47.320Z,-0.70
2019-01-18T08:21:17.297Z,-0.70
2019-01-18T08:23:46.791Z,-0.60
2019-01-18T08:26:16.447Z,-0.60
2019-01-18T08:28:45.934Z,-0.60
2019-01-18T08:31:15.426Z,-0.50
2019-01-18T08:33:44.966Z,-0.50
2019-01-18T08:36:14.515Z,-0.40
2019-01-18T08:38:43.984Z,-0.40
2019-01-18T08:41:13.960Z,-0.40
2019-01-18T08:43:43.489Z,-0.30
2019-01-18T08:46:14.537Z,-0.40
2019-01-18T08:48:44.034Z,-0.30
2019-01-18T08:51:13.656Z,-0.30
2019-01-18T08:53:43.120Z,-0.30
2019-01-18T08:56:12.844Z,-0.30
2019-01-18T08:58:42.279Z,-0.30
2019-01-18T09:01:11.747Z,-0.20
2019-01-18T09:03:41.263Z,-0.20
2019-01-18T09:06:10.792Z,-0.30
2019-01-18T09:08:40.237Z,-0.20
2019-01-18T09:11:09.713Z,-0.20
2019-01-18T09:13:39.328Z,0.10
2019-01-18T09:16:08.860Z,0.10
2019-01-18T09:18:38.342Z,0.20
2019-01-18T09:21:07.779Z,0.20
2019-01-18T09:23:37.285Z,0.40
2019-01-18T09:26:06.929Z,0.60
2019-01-18T09:28:36.846Z,0.80
2019-01-18T09:31:06.322Z,0.90
2019-01-18T09:33:35.789Z,0.90
2019-01-18T09:36:05.650Z,0.80
2019-01-18T09:38:37.978Z,1.20
2019-01-18T09:41:07.896Z,1.50
2019-01-18T09:43:37.344Z,1.70
2019-01-18T09:46:06.765Z,1.40
2019-01-18T09:48:36.301Z,1.20
2019-01-18T09:51:05.769Z,0.90
2019-01-18T09:53:35.280Z,0.80
2019-01-18T09:56:05.192Z,0.80
2019-01-18T09:58:34.826Z,0.60
2019-01-18T10:01:04.667Z,0.70
2019-01-18T10:03:36.219Z,0.60
2019-01-18T10:06:05.557Z,0.50
2019-01-18T10:08:35.025Z,0.40
2019-01-18T10:11:04.688Z,0.50
2019-01-18T10:13:34.328Z,0.50
2019-01-18T10:16:04.050Z,0.60
2019-01-18T10:18:33.704Z,0.60
2019-01-18T10:21:03.191Z,0.60
2019-01-18T10:23:32.791Z,0.60
2019-01-18T10:26:02.457Z,0.70
2019-01-18T10:28:32.005Z,0.80
2019-01-18T10:31:03.176Z,0.80
2019-01-18T10:33:32.679Z,0.80
2019-01-18T10:36:02.173Z,0.80
2019-01-18T10:38:31.710Z,1.10
2019-01-18T10:41:01.180Z,1.10
2019-01-18T10:43:30.727Z,1.40
2019-01-18T10:46:00.191Z,1.60
2019-01-18T10:48:29.728Z,1.70
2019-01-18T10:50:59.252Z,1.80
2019-01-18T10:53:28.743Z,1.90
2019-01-18T10:55:58.304Z,1.90
2019-01-18T10:58:27.759Z,1.70
2019-01-18T11:00:57.330Z,1.80
2019-01-18T11:03:26.850Z,1.70
2019-01-18T11:05:56.402Z,1.30
2019-01-18T11:08:26.076Z,1.40
2019-01-18T11:10:55.472Z,1.50
2019-01-18T11:13:26.514Z,1.30
2019-01-18T11:15:55.997Z,1.20
2019-01-18T11:18:25.713Z,1.40
2019-01-18T11:21:01.808Z,1.30
2019-01-18T11:23:31.383Z,1.30
2019-01-18T11:26:00.835Z,1.60
2019-01-18T11:28:30.465Z,1.70
2019-01-18T11:31:00.048Z,1.50
2019-01-18T11:33:29.730Z,1.40
2019-01-18T11:35:59.227Z,1.30
2019-01-18T11:38:28.780Z,1.10
2019-01-18T11:40:58.589Z,1.20
2019-01-18T11:43:28.141Z,1.40
2019-01-18T11:45:57.939Z,1.70
2019-01-18T11:48:27.510Z,2.00
2019-01-18T11:50:57.172Z,1.90
2019-01-18T11:53:26.812Z,2.10
2019-01-18T11:55:56.400Z,2.40
2019-01-18T11:58:26.106Z,2.40
2019-01-18T12:00:55.628Z,2.70
2019-01-18T12:03:25.135Z,2.50
2019-01-18T12:05:54.687Z,2.40
2019-01-18T12:08:24.811Z,2.30
2019-01-18T12:10:54.376Z,2.30
2019-01-18T12:13:23.916Z,2.30
2019-01-18T12:15:53.544Z,2.30
2019-01-18T12:18:22.973Z,2.50
2019-01-18T12:20:52.629Z,2.40
2019-01-18T12:23:22.204Z,2.70
2019-01-18T12:25:51.649Z,3.00
2019-01-18T12:28:21.088Z,3.30
2019-01-18T12:30:51.214Z,3.50
2019-01-18T12:33:20.617Z,3.70
2019-01-18T12:35:50.271Z,3.70
2019-01-18T12:38:19.809Z,3.50
2019-01-18T12:40:49.747Z,3.20
2019-01-18T12:43:19.239Z,3.40
2019-01-18T12:45:48.770Z,3.60
2019-01-18T12:48:18.251Z,3.70
2019-01-18T12:50:47.726Z,3.40
2019-01-18T12:53:17.207Z,3.40
2019-01-18T12:55:46.869Z,3.40
2019-01-18T12:58:16.368Z,3.30
2019-01-18T13:00:45.805Z,3.20
2019-01-18T13:03:15.437Z,3.30
2019-01-18T13:05:49.669Z,2.60
2019-01-18T13:08:19.139Z,2.90
2019-01-18T13:10:48.583Z,2.90
2019-01-18T13:13:18.208Z,2.80
2019-01-18T13:15:55.791Z,2.70
2019-01-18T13:18:25.252Z,2.50
2019-01-18T13:20:54.806Z,2.20
2019-01-18T13:23:24.311Z,2.40
2019-01-18T13:25:53.799Z,2.60
2019-01-18T13:28:23.387Z,2.70
2019-01-18T13:31:11.107Z,2.70
2019-01-18T13:33:40.622Z,2.80
2019-01-18T13:36:19.092Z,3.10
2019-01-18T13:38:48.751Z,3.20
2019-01-18T13:41:18.367Z,3.30
2019-01-18T13:43:48.101Z,3.30
2019-01-18T13:46:17.729Z,3.00
2019-01-18T13:48:47.465Z,3.20
2019-01-18T13:51:17.403Z,3.40
2019-01-18T13:53:46.928Z,3.50
2019-01-18T13:56:16.519Z,3.70
2019-01-18T13:58:46.210Z,3.50
2019-01-18T14:01:15.743Z,3.60
2019-01-18T14:03:45.612Z,3.60
2019-01-18T14:06:15.257Z,3.40
2019-01-18T14:08:44.698Z,3.10
2019-01-18T14:11:16.111Z,2.90
2019-01-18T14:13:45.698Z,2.80
2019-01-18T14:16:15.263Z,2.60
2019-01-18T14:18:44.861Z,2.50
2019-01-18T14:21:14.427Z,2.50
2019-01-18T14:23:43.945Z,2.50
2019-01-18T14:26:13.620Z,2.50
2019-01-18T14:28:43.161Z,2.40
2019-01-18T14:31:12.628Z,2.40
2019-01-18T14:33:42.145Z,2.40
2019-01-18T14:36:14.602Z,2.40
2019-01-18T14:38:42.922Z,2.40
2019-01-18T14:41:15.782Z,2.50
2019-01-18T14:43:43.903Z,2.40
2019-01-18T14:46:13.504Z,2.40
2019-01-18T14:48:43.340Z,2.30
2019-01-18T14:51:12.877Z,2.20
2019-01-18T14:53:42.507Z,2.10
2019-01-18T14:56:12.086Z,1.90
2019-01-18T14:58:41.630Z,1.70
2019-01-18T15:01:11.518Z,1.60
2019-01-18T15:03:41.063Z,1.40
2019-01-18T15:06:10.670Z,1.40
2019-01-18T15:08:40.207Z,1.30
2019-01-18T15:11:09.776Z,1.50
2019-01-18T15:13:39.323Z,1.70
2019-01-18T15:16:08.733Z,1.70
2019-01-18T15:18:38.759Z,1.80
2019-01-18T15:21:08.105Z,1.60
2019-01-18T15:23:37.528Z,1.40
2019-01-18T15:26:06.895Z,1.10
2019-01-18T15:28:36.258Z,0.90
2019-01-18T15:31:05.991Z,0.60
2019-01-18T15:34:31.237Z,0.30
2019-01-18T15:37:00.652Z,0.10
2019-01-18T15:39:30.112Z,-0.20
2019-01-18T15:41:59.521Z,-0.20
2019-01-18T15:44:28.913Z,-0.40
2019-01-18T15:46:58.242Z,-0.70
2019-01-18T15:49:27.797Z,-1.00
2019-01-18T15:51:58.429Z,-1.20
2019-01-18T15:54:27.921Z,-1.10
2019-01-18T15:56:57.593Z,-1.20
2019-01-18T15:59:26.966Z,-1.30
2019-01-18T16:02:14.193Z,-1.40
2019-01-18T16:04:43.699Z,-1.60
2019-01-18T16:07:13.030Z,-1.70
2019-01-18T16:09:42.454Z,-1.80
2019-01-18T16:12:11.797Z,-1.80
2019-01-18T16:15:17.067Z,-1.70
2019-01-18T16:17:47.415Z,-1.80
2019-01-18T16:20:19.258Z,-1.90
2019-01-18T16:22:49.498Z,-2.00
2019-01-18T16:25:27.422Z,-2.10
2019-01-18T16:27:56.744Z,-2.20
2019-01-18T16:30:26.267Z,-2.20
2019-01-18T16:32:56.580Z,-2.20
2019-01-18T16:35:26.211Z,-2.20
2019-01-18T16:37:55.995Z,-2.20
2019-01-18T16:40:43.716Z,-2.30
2019-01-18T16:43:19.448Z,-2.40
2019-01-18T16:45:48.987Z,-2.50
2019-01-18T16:48:18.520Z,-2.60
2019-01-18T16:50:48.111Z,-2.60
2019-01-18T16:53:17.850Z,-2.70
2019-01-18T16:55:47.356Z,-2.70
2019-01-18T16:58:16.906Z,-2.70
2019-01-18T17:00:47.956Z,-2.70
2019-01-18T17:03:17.511Z,-2.70
2019-01-18T17:05:47.052Z,-2.70
2019-01-18T17:08:16.664Z,-2.70
2019-01-18T17:10:46.615Z,-2.50
2019-01-18T17:13:36.693Z,-2.60
2019-01-18T17:16:06.678Z,-2.50
2019-01-18T17:18:36.409Z,-2.50
2019-01-18T17:21:06.136Z,-2.50
2019-01-18T17:23:35.680Z,-2.50
2019-01-18T17:26:06.952Z,-2.50
2019-01-18T17:28:36.535Z,-2.50
2019-01-18T17:31:06.589Z,-2.40
2019-01-18T17:33:37.136Z,-2.40
2019-01-18T17:36:18.371Z,-2.40
2019-01-18T17:39:21.774Z,-2.40
2019-01-18T17:42:20.021Z,-2.40
2019-01-18T17:45:32.422Z,-2.40
2019-01-18T17:48:26.586Z,-2.40
2019-01-18T17:51:21.291Z,-2.40
2019-01-18T17:54:34.847Z,-2.40
2019-01-18T17:57:28.460Z,-2.50
2019-01-18T18:00:32.960Z,-2.50
2019-01-18T18:03:36.352Z,-2.60
2019-01-18T18:06:52.543Z,-2.70
2019-01-18T18:09:49.789Z,-2.80
2019-01-18T18:12:44.366Z,-2.80
2019-01-18T18:16:01.312Z,-2.90
2019-01-18T18:19:16.671Z,-2.90
2019-01-18T18:22:21.712Z,-2.90
2019-01-18T18:25:03.635Z,-3.00
2019-01-18T18:27:54.837Z,-3.00
2019-01-18T18:30:42.517Z,-3.00
2019-01-18T18:34:08.795Z,-3.00
2019-01-18T18:37:13.991Z,-3.00
2019-01-18T18:40:15.720Z,-3.00
2019-01-18T18:43:41.169Z,-3.00
2019-01-18T18:46:56.424Z,-3.10
2019-01-18T18:49:59.115Z,-3.10
2019-01-18T18:53:01.758Z,-3.10
2019-01-18T18:55:55.804Z,-3.10
2019-01-18T18:58:35.230Z,-3.10
2019-01-18T19:01:42.439Z,-3.00
2019-01-18T19:04:46.494Z,-3.00
2019-01-18T19:08:21.332Z,-2.90
2019-01-18T19:11:22.750Z,-2.90
2019-01-18T19:14:54.680Z,-2.90
2019-01-18T19:17:37.888Z,-2.90
2019-01-18T19:20:37.589Z,-3.00
2019-01-18T19:23:50.633Z,-3.00
2019-01-18T19:27:00.625Z,-3.10
2019-01-18T19:30:05.255Z,-3.10
2019-01-18T19:33:15.552Z,-3.10
2019-01-18T19:36:39.626Z,-3.10
2019-01-18T19:39:50.121Z,-3.20
2019-01-18T19:42:48.447Z,-3.30
2019-01-18T19:45:41.139Z,-3.30
2019-01-18T19:48:33.993Z,-3.30
2019-01-18T19:51:35.247Z,-3.40
2019-01-18T19:54:21.376Z,-3.30
2019-01-18T19:57:03.904Z,-3.10
2019-01-18T20:00:06.957Z,-3.20
2019-01-18T20:03:06.858Z,-3.40
2019-01-18T20:06:13.141Z,-3.40
2019-01-18T20:09:16.821Z,-3.50
2019-01-18T20:12:05.928Z,-3.70
2019-01-18T20:14:54.993Z,-3.70
2019-01-18T20:18:07.443Z,-3.80
2019-01-18T20:20:57.832Z,-3.80
2019-01-18T20:24:36.004Z,-3.80
2019-01-18T20:27:41.332Z,-3.80
2019-01-18T20:30:46.870Z,-3.80
2019-01-18T20:33:53.228Z,-3.90
2019-01-18T20:36:55.189Z,-4.00
2019-01-18T20:40:21.305Z,-4.10
2019-01-18T20:43:47.319Z,-4.20
2019-01-18T20:46:56.963Z,-4.30
2019-01-18T20:49:40.901Z,-4.40
2019-01-18T20:52:44.064Z,-4.30
2019-01-18T20:55:42.477Z,-4.40
2019-01-18T20:58:39.315Z,-4.30
2019-01-18T21:01:53.145Z,-4.30
2019-01-18T21:05:05.479Z,-4.00
2019-01-18T21:08:00.277Z,-4.20
2019-01-18T21:10:56.112Z,-4.20
2019-01-18T21:14:27.616Z,-4.30
2019-01-18T21:17:20.846Z,-4.50
2019-01-18T21:20:18.156Z,-4.60
2019-01-18T21:23:15.671Z,-4.60
2019-01-18T21:26:20.092Z,-4.70
2019-01-18T21:29:26.306Z,-4.70
2019-01-18T21:32:31.615Z,-4.70
2019-01-18T21:35:41.447Z,-4.70
2019-01-18T21:38:53.277Z,-4.70
2019-01-18T21:42:21.111Z,-4.70
2019-01-18T21:45:26.592Z,-4.70
2019-01-18T21:48:49.402Z,-4.80
2019-01-18T21:51:35.824Z,-4.80
2019-01-18T21:54:58.509Z,-4.80
2019-01-18T21:57:53.602Z,-4.90
2019-01-18T22:00:38.433Z,-4.90
2019-01-18T22:03:33.184Z,-5.00
2019-01-18T22:06:52.616Z,-5.00
2019-01-18T22:09:37.348Z,-4.90
2019-01-18T22:13:00.747Z,-4.90
2019-01-18T22:16:20.553Z,-5.00
2019-01-18T22:19:18.710Z,-5.00
2019-01-18T22:22:37.991Z,-5.10
2019-01-18T22:25:48.783Z,-5.10
2019-01-18T22:29:11.137Z,-5.10
2019-01-18T22:32:16.571Z,-5.10
2019-01-18T22:35:02.630Z,-5.00
2019-01-18T22:37:43.190Z,-5.10
2019-01-18T22:40:49.669Z,-5.10
2019-01-18T22:43:56.727Z,-5.10
2019-01-18T22:47:22.390Z,-5.10
2019-01-18T22:49:58.508Z,-5.20
2019-01-18T22:53:17.874Z,-5.10
2019-01-18T22:56:30.934Z,-5.20
2019-01-18T22:59:25.631Z,-5.20
2019-01-18T23:02:39.260Z,-5.30
2019-01-18T23:06:02.296Z,-5.30
2019-01-18T23:09:15.679Z,-5.30
2019-01-18T23:12:35.018Z,-5.20
2019-01-18T23:15:40.364Z,-5.30
2019-01-18T23:18:20.247Z,-5.30
2019-01-18T23:21:45.592Z,-5.40
2019-01-18T23:24:37.024Z,-5.40
2019-01-18T23:27:50.596Z,-5.50
2019-01-18T23:31:00.751Z,-5.50
2019-01-18T23:34:07.211Z,-5.60
2019-01-18T23:37:18.053Z,-5.50
2019-01-18T23:40:23.413Z,-5.50
2019-01-18T23:43:40.978Z,-5.50
2019-01-18T23:46:55.957Z,-5.50
2019-01-18T23:50:20.016Z,-5.50
2019-01-18T23:53:36.380Z,-5.50
2019-01-18T23:56:31.744Z,-5.60
2019-01-18T23:59:32.018Z,-5.70
